sensor_id;sensor_type;location;lat;lon;timestamp;P1;durP1;ratioP1;P2;durP2;ratioP2
8327;SDS011;4201;48.754;8.864;2023-02-28T00:01:23;8.73;;;4.13;;
8327;SDS011;4201;48.754;8.864;2023-02-28T00:03:50;7.80;;;4.40;;
8327;SDS011;4201;48.754;8.864;2023-02-28T00:06:16;6.40;;;3.73;;
8327;SDS011;4201;48.754;8.864;2023-02-28T00:08:42;5.63;;;3.90;;
8327;SDS011;4201;48.754;8.864;2023-02-28T00:11:09;5.20;;;3.40;;
8327;SDS011;4201;48.754;8.864;2023-02-28T00:13:39;6.27;;;4.17;;
8327;SDS011;4201;48.754;8.864;2023-02-28T00:16:06;6.07;;;3.07;;
8327;SDS011;4201;48.754;8.864;2023-02-28T00:18:33;5.63;;;3.30;;
8327;SDS011;4201;48.754;8.864;2023-02-28T00:20:59;8.80;;;4.77;;
8327;SDS011;4201;48.754;8.864;2023-02-28T00:23:26;6.67;;;3.20;;
8327;SDS011;4201;48.754;8.864;2023-02-28T00:25:52;6.80;;;4.20;;
8327;SDS011;4201;48.754;8.864;2023-02-28T00:28:18;8.30;;;4.23;;
8327;SDS011;4201;48.754;8.864;2023-02-28T00:30:46;6.07;;;3.70;;
8327;SDS011;4201;48.754;8.864;2023-02-28T00:33:13;6.53;;;3.40;;
8327;SDS011;4201;48.754;8.864;2023-02-28T00:35:39;6.57;;;4.17;;
8327;SDS011;4201;48.754;8.864;2023-02-28T00:38:05;7.73;;;3.63;;
8327;SDS011;4201;48.754;8.864;2023-02-28T00:40:31;6.10;;;3.97;;
8327;SDS011;4201;48.754;8.864;2023-02-28T00:42:58;5.67;;;3.67;;
8327;SDS011;4201;48.754;8.864;2023-02-28T00:45:24;5.77;;;3.70;;
8327;SDS011;4201;48.754;8.864;2023-02-28T00:47:51;6.60;;;4.23;;
8327;SDS011;4201;48.754;8.864;2023-02-28T00:50:18;9.40;;;5.60;;
8327;SDS011;4201;48.754;8.864;2023-02-28T00:52:45;6.80;;;4.47;;
8327;SDS011;4201;48.754;8.864;2023-02-28T00:55:11;10.87;;;4.37;;
8327;SDS011;4201;48.754;8.864;2023-02-28T00:57:37;6.27;;;3.97;;
8327;SDS011;4201;48.754;8.864;2023-02-28T01:00:05;6.67;;;4.30;;
8327;SDS011;4201;48.754;8.864;2023-02-28T01:02:32;5.40;;;3.73;;
8327;SDS011;4201;48.754;8.864;2023-02-28T01:04:59;6.90;;;4.10;;
8327;SDS011;4201;48.754;8.864;2023-02-28T01:07:26;7.00;;;4.07;;
8327;SDS011;4201;48.754;8.864;2023-02-28T01:09:52;5.70;;;2.60;;
8327;SDS011;4201;48.754;8.864;2023-02-28T01:12:18;6.17;;;3.37;;
8327;SDS011;4201;48.754;8.864;2023-02-28T01:14:44;6.97;;;3.57;;
8327;SDS011;4201;48.754;8.864;2023-02-28T01:17:11;9.93;;;4.50;;
8327;SDS011;4201;48.754;8.864;2023-02-28T01:19:37;7.23;;;3.83;;
8327;SDS011;4201;48.754;8.864;2023-02-28T01:22:05;8.43;;;4.27;;
8327;SDS011;4201;48.754;8.864;2023-02-28T01:24:32;5.37;;;3.80;;
8327;SDS011;4201;48.754;8.864;2023-02-28T01:26:58;6.73;;;4.30;;
8327;SDS011;4201;48.754;8.864;2023-02-28T01:29:25;6.27;;;3.50;;
8327;SDS011;4201;48.754;8.864;2023-02-28T01:31:51;8.37;;;4.37;;
8327;SDS011;4201;48.754;8.864;2023-02-28T01:34:17;6.87;;;4.73;;
8327;SDS011;4201;48.754;8.864;2023-02-28T01:36:44;7.97;;;4.53;;
8327;SDS011;4201;48.754;8.864;2023-02-28T01:39:12;8.40;;;4.87;;
8327;SDS011;4201;48.754;8.864;2023-02-28T01:41:38;6.40;;;4.53;;
8327;SDS011;4201;48.754;8.864;2023-02-28T01:44:06;9.80;;;5.13;;
8327;SDS011;4201;48.754;8.864;2023-02-28T01:46:33;10.07;;;4.53;;
8327;SDS011;4201;48.754;8.864;2023-02-28T01:49:05;12.10;;;5.37;;
8327;SDS011;4201;48.754;8.864;2023-02-28T01:51:33;8.53;;;4.67;;
8327;SDS011;4201;48.754;8.864;2023-02-28T01:54:01;7.00;;;4.63;;
8327;SDS011;4201;48.754;8.864;2023-02-28T01:56:30;7.67;;;5.10;;
8327;SDS011;4201;48.754;8.864;2023-02-28T01:58:57;8.30;;;5.33;;
8327;SDS011;4201;48.754;8.864;2023-02-28T02:01:25;6.40;;;3.53;;
8327;SDS011;4201;48.754;8.864;2023-02-28T02:03:53;6.47;;;5.03;;
8327;SDS011;4201;48.754;8.864;2023-02-28T02:06:21;7.10;;;4.60;;
8327;SDS011;4201;48.754;8.864;2023-02-28T02:08:48;8.13;;;5.20;;
8327;SDS011;4201;48.754;8.864;2023-02-28T02:11:14;6.50;;;4.63;;
8327;SDS011;4201;48.754;8.864;2023-02-28T02:13:48;10.53;;;5.97;;
8327;SDS011;4201;48.754;8.864;2023-02-28T02:16:23;8.17;;;5.20;;
8327;SDS011;4201;48.754;8.864;2023-02-28T02:18:54;8.00;;;4.83;;
8327;SDS011;4201;48.754;8.864;2023-02-28T02:21:41;13.00;;;5.17;;
8327;SDS011;4201;48.754;8.864;2023-02-28T02:27:03;8.83;;;5.57;;
8327;SDS011;4201;48.754;8.864;2023-02-28T02:29:45;10.80;;;6.17;;
8327;SDS011;4201;48.754;8.864;2023-02-28T02:32:28;8.70;;;5.50;;
8327;SDS011;4201;48.754;8.864;2023-02-28T02:35:00;9.57;;;5.50;;
8327;SDS011;4201;48.754;8.864;2023-02-28T02:37:29;8.37;;;6.30;;
8327;SDS011;4201;48.754;8.864;2023-02-28T02:39:59;9.33;;;6.13;;
8327;SDS011;4201;48.754;8.864;2023-02-28T02:42:27;8.10;;;5.70;;
8327;SDS011;4201;48.754;8.864;2023-02-28T02:44:56;12.17;;;5.70;;
8327;SDS011;4201;48.754;8.864;2023-02-28T02:47:26;8.30;;;5.53;;
8327;SDS011;4201;48.754;8.864;2023-02-28T02:49:54;8.23;;;5.83;;
8327;SDS011;4201;48.754;8.864;2023-02-28T02:52:23;7.43;;;4.83;;
8327;SDS011;4201;48.754;8.864;2023-02-28T02:54:50;9.37;;;5.60;;
8327;SDS011;4201;48.754;8.864;2023-02-28T02:57:20;8.80;;;6.00;;
8327;SDS011;4201;48.754;8.864;2023-02-28T02:59:47;8.10;;;5.60;;
8327;SDS011;4201;48.754;8.864;2023-02-28T03:02:14;8.53;;;5.80;;
8327;SDS011;4201;48.754;8.864;2023-02-28T03:04:42;8.87;;;6.10;;
8327;SDS011;4201;48.754;8.864;2023-02-28T03:07:09;10.17;;;5.20;;
8327;SDS011;4201;48.754;8.864;2023-02-28T03:09:37;9.63;;;5.93;;
8327;SDS011;4201;48.754;8.864;2023-02-28T03:12:03;13.00;;;5.70;;
8327;SDS011;4201;48.754;8.864;2023-02-28T03:14:35;8.00;;;5.73;;
8327;SDS011;4201;48.754;8.864;2023-02-28T03:17:13;11.50;;;7.33;;
8327;SDS011;4201;48.754;8.864;2023-02-28T03:19:51;9.53;;;7.20;;
8327;SDS011;4201;48.754;8.864;2023-02-28T03:22:29;6.93;;;6.07;;
8327;SDS011;4201;48.754;8.864;2023-02-28T03:25:02;8.70;;;5.73;;
8327;SDS011;4201;48.754;8.864;2023-02-28T03:27:34;9.23;;;5.83;;
8327;SDS011;4201;48.754;8.864;2023-02-28T03:30:03;10.30;;;6.13;;
8327;SDS011;4201;48.754;8.864;2023-02-28T03:32:32;6.40;;;5.37;;
8327;SDS011;4201;48.754;8.864;2023-02-28T03:35:00;8.63;;;6.30;;
8327;SDS011;4201;48.754;8.864;2023-02-28T03:37:28;12.53;;;6.70;;
8327;SDS011;4201;48.754;8.864;2023-02-28T03:39:56;9.83;;;7.07;;
8327;SDS011;4201;48.754;8.864;2023-02-28T03:42:26;11.73;;;6.53;;
8327;SDS011;4201;48.754;8.864;2023-02-28T03:44:53;9.53;;;6.03;;
8327;SDS011;4201;48.754;8.864;2023-02-28T03:47:23;7.93;;;5.80;;
8327;SDS011;4201;48.754;8.864;2023-02-28T03:49:50;10.30;;;6.97;;
8327;SDS011;4201;48.754;8.864;2023-02-28T03:52:19;8.53;;;6.07;;
8327;SDS011;4201;48.754;8.864;2023-02-28T03:54:47;7.23;;;5.10;;
8327;SDS011;4201;48.754;8.864;2023-02-28T03:57:15;10.23;;;7.20;;
8327;SDS011;4201;48.754;8.864;2023-02-28T03:59:47;8.50;;;6.10;;
8327;SDS011;4201;48.754;8.864;2023-02-28T04:02:15;8.87;;;6.67;;
8327;SDS011;4201;48.754;8.864;2023-02-28T04:04:43;12.40;;;7.90;;
8327;SDS011;4201;48.754;8.864;2023-02-28T04:07:13;11.27;;;7.53;;
8327;SDS011;4201;48.754;8.864;2023-02-28T04:09:39;9.43;;;6.30;;
8327;SDS011;4201;48.754;8.864;2023-02-28T04:12:06;9.80;;;5.90;;
8327;SDS011;4201;48.754;8.864;2023-02-28T04:14:32;16.30;;;6.23;;
8327;SDS011;4201;48.754;8.864;2023-02-28T04:17:00;12.10;;;7.10;;
8327;SDS011;4201;48.754;8.864;2023-02-28T04:19:26;10.93;;;6.90;;
8327;SDS011;4201;48.754;8.864;2023-02-28T04:21:52;12.53;;;7.07;;
8327;SDS011;4201;48.754;8.864;2023-02-28T04:24:20;10.97;;;6.87;;
8327;SDS011;4201;48.754;8.864;2023-02-28T04:26:47;12.40;;;7.60;;
8327;SDS011;4201;48.754;8.864;2023-02-28T04:29:14;9.13;;;5.90;;
8327;SDS011;4201;48.754;8.864;2023-02-28T04:31:40;9.30;;;7.53;;
8327;SDS011;4201;48.754;8.864;2023-02-28T04:34:08;10.53;;;6.90;;
8327;SDS011;4201;48.754;8.864;2023-02-28T04:36:34;11.70;;;7.37;;
8327;SDS011;4201;48.754;8.864;2023-02-28T04:39:00;9.90;;;7.33;;
8327;SDS011;4201;48.754;8.864;2023-02-28T04:41:27;12.67;;;8.50;;
8327;SDS011;4201;48.754;8.864;2023-02-28T04:43:53;12.50;;;6.87;;
8327;SDS011;4201;48.754;8.864;2023-02-28T04:46:21;9.07;;;6.90;;
8327;SDS011;4201;48.754;8.864;2023-02-28T04:48:47;9.30;;;6.70;;
8327;SDS011;4201;48.754;8.864;2023-02-28T04:51:16;8.60;;;6.27;;
8327;SDS011;4201;48.754;8.864;2023-02-28T04:53:43;11.00;;;7.77;;
8327;SDS011;4201;48.754;8.864;2023-02-28T04:56:10;16.20;;;7.97;;
8327;SDS011;4201;48.754;8.864;2023-02-28T04:58:37;9.40;;;7.00;;
8327;SDS011;4201;48.754;8.864;2023-02-28T05:01:05;13.60;;;8.27;;
8327;SDS011;4201;48.754;8.864;2023-02-28T05:03:37;9.27;;;6.80;;
8327;SDS011;4201;48.754;8.864;2023-02-28T05:06:05;10.33;;;6.57;;
8327;SDS011;4201;48.754;8.864;2023-02-28T05:08:33;10.13;;;6.93;;
8327;SDS011;4201;48.754;8.864;2023-02-28T05:10:59;8.50;;;6.47;;
8327;SDS011;4201;48.754;8.864;2023-02-28T05:13:26;14.70;;;8.00;;
8327;SDS011;4201;48.754;8.864;2023-02-28T05:15:52;10.97;;;7.80;;
8327;SDS011;4201;48.754;8.864;2023-02-28T05:18:19;11.90;;;6.93;;
8327;SDS011;4201;48.754;8.864;2023-02-28T05:20:45;11.60;;;7.70;;
8327;SDS011;4201;48.754;8.864;2023-02-28T05:23:11;13.57;;;7.70;;
8327;SDS011;4201;48.754;8.864;2023-02-28T05:25:39;9.00;;;7.50;;
8327;SDS011;4201;48.754;8.864;2023-02-28T05:28:06;12.13;;;7.17;;
8327;SDS011;4201;48.754;8.864;2023-02-28T05:30:32;13.10;;;8.17;;
8327;SDS011;4201;48.754;8.864;2023-02-28T05:32:59;11.23;;;7.97;;
8327;SDS011;4201;48.754;8.864;2023-02-28T05:35:25;10.33;;;5.63;;
8327;SDS011;4201;48.754;8.864;2023-02-28T05:37:52;13.60;;;8.37;;
8327;SDS011;4201;48.754;8.864;2023-02-28T05:40:18;7.93;;;5.07;;
8327;SDS011;4201;48.754;8.864;2023-02-28T05:42:46;11.60;;;8.47;;
8327;SDS011;4201;48.754;8.864;2023-02-28T05:45:12;13.10;;;7.53;;
8327;SDS011;4201;48.754;8.864;2023-02-28T05:47:39;12.90;;;8.50;;
8327;SDS011;4201;48.754;8.864;2023-02-28T05:50:05;12.10;;;8.17;;
8327;SDS011;4201;48.754;8.864;2023-02-28T05:52:32;15.87;;;8.80;;
8327;SDS011;4201;48.754;8.864;2023-02-28T05:54:58;13.70;;;8.07;;
8327;SDS011;4201;48.754;8.864;2023-02-28T05:57:24;10.57;;;7.80;;
8327;SDS011;4201;48.754;8.864;2023-02-28T05:59:52;12.33;;;7.47;;
8327;SDS011;4201;48.754;8.864;2023-02-28T06:02:18;14.00;;;8.53;;
8327;SDS011;4201;48.754;8.864;2023-02-28T06:04:44;8.87;;;5.67;;
8327;SDS011;4201;48.754;8.864;2023-02-28T06:07:11;11.93;;;8.53;;
8327;SDS011;4201;48.754;8.864;2023-02-28T06:09:37;14.73;;;8.67;;
8327;SDS011;4201;48.754;8.864;2023-02-28T06:12:04;17.10;;;10.87;;
8327;SDS011;4201;48.754;8.864;2023-02-28T06:14:32;9.20;;;5.93;;
8327;SDS011;4201;48.754;8.864;2023-02-28T06:17:00;12.80;;;8.37;;
8327;SDS011;4201;48.754;8.864;2023-02-28T06:19:26;16.90;;;13.33;;
8327;SDS011;4201;48.754;8.864;2023-02-28T06:21:53;17.87;;;12.37;;
8327;SDS011;4201;48.754;8.864;2023-02-28T06:24:20;25.47;;;16.67;;
8327;SDS011;4201;48.754;8.864;2023-02-28T06:26:47;24.73;;;19.17;;
8327;SDS011;4201;48.754;8.864;2023-02-28T06:29:13;22.57;;;13.30;;
8327;SDS011;4201;48.754;8.864;2023-02-28T06:31:43;28.00;;;18.63;;
8327;SDS011;4201;48.754;8.864;2023-02-28T06:34:11;22.13;;;15.63;;
8327;SDS011;4201;48.754;8.864;2023-02-28T06:36:37;19.77;;;14.00;;
8327;SDS011;4201;48.754;8.864;2023-02-28T06:39:04;21.23;;;12.73;;
8327;SDS011;4201;48.754;8.864;2023-02-28T06:41:30;23.00;;;12.00;;
8327;SDS011;4201;48.754;8.864;2023-02-28T06:44:02;35.07;;;22.30;;
8327;SDS011;4201;48.754;8.864;2023-02-28T06:46:28;20.83;;;13.30;;
8327;SDS011;4201;48.754;8.864;2023-02-28T06:48:55;41.37;;;21.77;;
8327;SDS011;4201;48.754;8.864;2023-02-28T06:51:22;36.33;;;19.43;;
8327;SDS011;4201;48.754;8.864;2023-02-28T06:53:49;32.47;;;16.93;;
8327;SDS011;4201;48.754;8.864;2023-02-28T06:56:16;25.13;;;15.30;;
8327;SDS011;4201;48.754;8.864;2023-02-28T06:58:45;31.97;;;20.70;;
8327;SDS011;4201;48.754;8.864;2023-02-28T07:01:13;24.47;;;12.67;;
8327;SDS011;4201;48.754;8.864;2023-02-28T07:03:39;23.00;;;13.27;;
8327;SDS011;4201;48.754;8.864;2023-02-28T07:06:05;28.10;;;19.90;;
8327;SDS011;4201;48.754;8.864;2023-02-28T07:08:33;14.37;;;9.57;;
8327;SDS011;4201;48.754;8.864;2023-02-28T07:10:59;60.27;;;34.23;;
8327;SDS011;4201;48.754;8.864;2023-02-28T07:13:25;73.10;;;47.10;;
8327;SDS011;4201;48.754;8.864;2023-02-28T07:15:52;22.13;;;15.47;;
8327;SDS011;4201;48.754;8.864;2023-02-28T07:18:19;19.73;;;9.93;;
8327;SDS011;4201;48.754;8.864;2023-02-28T07:20:45;18.87;;;11.63;;
8327;SDS011;4201;48.754;8.864;2023-02-28T07:23:11;14.43;;;10.90;;
8327;SDS011;4201;48.754;8.864;2023-02-28T07:25:39;17.27;;;9.97;;
8327;SDS011;4201;48.754;8.864;2023-02-28T07:28:05;15.33;;;10.83;;
8327;SDS011;4201;48.754;8.864;2023-02-28T07:30:31;14.60;;;10.60;;
8327;SDS011;4201;48.754;8.864;2023-02-28T07:32:58;19.63;;;11.40;;
8327;SDS011;4201;48.754;8.864;2023-02-28T07:35:24;13.70;;;10.20;;
8327;SDS011;4201;48.754;8.864;2023-02-28T07:37:50;14.80;;;10.43;;
8327;SDS011;4201;48.754;8.864;2023-02-28T07:40:17;14.83;;;9.83;;
8327;SDS011;4201;48.754;8.864;2023-02-28T07:42:44;21.40;;;10.30;;
8327;SDS011;4201;48.754;8.864;2023-02-28T07:45:11;19.70;;;14.70;;
8327;SDS011;4201;48.754;8.864;2023-02-28T07:47:37;19.87;;;12.17;;
8327;SDS011;4201;48.754;8.864;2023-02-28T07:50:04;14.37;;;9.73;;
8327;SDS011;4201;48.754;8.864;2023-02-28T07:52:30;13.77;;;10.00;;
8327;SDS011;4201;48.754;8.864;2023-02-28T07:54:57;23.47;;;12.43;;
8327;SDS011;4201;48.754;8.864;2023-02-28T07:57:23;16.83;;;10.97;;
8327;SDS011;4201;48.754;8.864;2023-02-28T07:59:51;16.60;;;12.87;;
8327;SDS011;4201;48.754;8.864;2023-02-28T08:02:18;16.93;;;9.30;;
8327;SDS011;4201;48.754;8.864;2023-02-28T08:04:44;18.53;;;13.67;;
8327;SDS011;4201;48.754;8.864;2023-02-28T08:07:12;17.77;;;8.63;;
8327;SDS011;4201;48.754;8.864;2023-02-28T08:09:38;14.97;;;8.83;;
8327;SDS011;4201;48.754;8.864;2023-02-28T08:12:04;14.43;;;8.23;;
8327;SDS011;4201;48.754;8.864;2023-02-28T08:14:31;15.13;;;8.33;;
8327;SDS011;4201;48.754;8.864;2023-02-28T08:16:59;18.43;;;9.73;;
8327;SDS011;4201;48.754;8.864;2023-02-28T08:19:25;14.43;;;8.97;;
8327;SDS011;4201;48.754;8.864;2023-02-28T08:21:51;17.30;;;11.30;;
8327;SDS011;4201;48.754;8.864;2023-02-28T08:24:17;16.90;;;10.87;;
8327;SDS011;4201;48.754;8.864;2023-02-28T08:26:44;15.80;;;10.30;;
8327;SDS011;4201;48.754;8.864;2023-02-28T08:29:10;13.07;;;9.80;;
8327;SDS011;4201;48.754;8.864;2023-02-28T08:31:36;18.30;;;10.20;;
8327;SDS011;4201;48.754;8.864;2023-02-28T08:34:05;14.40;;;9.10;;
8327;SDS011;4201;48.754;8.864;2023-02-28T08:36:32;19.93;;;10.90;;
8327;SDS011;4201;48.754;8.864;2023-02-28T08:38:58;21.27;;;15.50;;
8327;SDS011;4201;48.754;8.864;2023-02-28T08:41:24;25.57;;;11.80;;
8327;SDS011;4201;48.754;8.864;2023-02-28T08:43:51;19.73;;;13.23;;
8327;SDS011;4201;48.754;8.864;2023-02-28T08:46:18;17.33;;;10.87;;
8327;SDS011;4201;48.754;8.864;2023-02-28T08:48:45;14.70;;;9.43;;
8327;SDS011;4201;48.754;8.864;2023-02-28T08:51:13;14.00;;;9.47;;
8327;SDS011;4201;48.754;8.864;2023-02-28T08:53:41;17.63;;;11.40;;
8327;SDS011;4201;48.754;8.864;2023-02-28T08:56:08;14.60;;;9.37;;
8327;SDS011;4201;48.754;8.864;2023-02-28T08:58:34;17.10;;;11.20;;
8327;SDS011;4201;48.754;8.864;2023-02-28T09:01:06;15.60;;;10.07;;
8327;SDS011;4201;48.754;8.864;2023-02-28T09:03:33;17.37;;;9.03;;
8327;SDS011;4201;48.754;8.864;2023-02-28T09:05:59;18.57;;;12.20;;
8327;SDS011;4201;48.754;8.864;2023-02-28T09:08:28;15.47;;;10.80;;
8327;SDS011;4201;48.754;8.864;2023-02-28T09:10:55;19.27;;;11.00;;
8327;SDS011;4201;48.754;8.864;2023-02-28T09:13:22;19.00;;;11.60;;
8327;SDS011;4201;48.754;8.864;2023-02-28T09:15:49;20.17;;;11.60;;
8327;SDS011;4201;48.754;8.864;2023-02-28T09:18:15;16.60;;;10.17;;
8327;SDS011;4201;48.754;8.864;2023-02-28T09:20:42;21.03;;;12.30;;
8327;SDS011;4201;48.754;8.864;2023-02-28T09:23:08;14.23;;;10.43;;
8327;SDS011;4201;48.754;8.864;2023-02-28T09:25:36;17.20;;;9.40;;
8327;SDS011;4201;48.754;8.864;2023-02-28T09:28:03;18.50;;;12.07;;
8327;SDS011;4201;48.754;8.864;2023-02-28T09:30:29;17.80;;;11.73;;
8327;SDS011;4201;48.754;8.864;2023-02-28T09:32:56;15.10;;;10.20;;
8327;SDS011;4201;48.754;8.864;2023-02-28T09:35:22;25.23;;;12.90;;
8327;SDS011;4201;48.754;8.864;2023-02-28T09:37:49;15.30;;;10.93;;
8327;SDS011;4201;48.754;8.864;2023-02-28T09:40:17;23.67;;;11.93;;
8327;SDS011;4201;48.754;8.864;2023-02-28T09:42:46;18.77;;;12.50;;
8327;SDS011;4201;48.754;8.864;2023-02-28T09:45:22;21.50;;;11.57;;
8327;SDS011;4201;48.754;8.864;2023-02-28T09:47:49;18.83;;;10.93;;
8327;SDS011;4201;48.754;8.864;2023-02-28T09:50:20;22.63;;;11.63;;
8327;SDS011;4201;48.754;8.864;2023-02-28T09:52:48;21.83;;;12.47;;
8327;SDS011;4201;48.754;8.864;2023-02-28T09:55:18;15.00;;;10.00;;
8327;SDS011;4201;48.754;8.864;2023-02-28T09:57:46;17.40;;;10.20;;
8327;SDS011;4201;48.754;8.864;2023-02-28T10:00:13;18.63;;;12.97;;
8327;SDS011;4201;48.754;8.864;2023-02-28T10:05:24;22.63;;;12.10;;
8327;SDS011;4201;48.754;8.864;2023-02-28T10:08:03;18.70;;;10.67;;
8327;SDS011;4201;48.754;8.864;2023-02-28T10:10:34;15.93;;;11.80;;
8327;SDS011;4201;48.754;8.864;2023-02-28T10:13:05;18.93;;;10.97;;
8327;SDS011;4201;48.754;8.864;2023-02-28T10:15:32;17.33;;;11.30;;
8327;SDS011;4201;48.754;8.864;2023-02-28T10:18:00;17.93;;;11.67;;
8327;SDS011;4201;48.754;8.864;2023-02-28T10:20:29;17.80;;;11.57;;
8327;SDS011;4201;48.754;8.864;2023-02-28T10:23:00;14.53;;;10.23;;
8327;SDS011;4201;48.754;8.864;2023-02-28T10:25:32;16.87;;;10.37;;
8327;SDS011;4201;48.754;8.864;2023-02-28T10:27:59;20.23;;;12.90;;
8327;SDS011;4201;48.754;8.864;2023-02-28T10:30:28;12.90;;;7.40;;
8327;SDS011;4201;48.754;8.864;2023-02-28T10:32:54;14.87;;;11.57;;
8327;SDS011;4201;48.754;8.864;2023-02-28T10:35:21;26.13;;;15.80;;
8327;SDS011;4201;48.754;8.864;2023-02-28T10:37:49;16.07;;;9.33;;
8327;SDS011;4201;48.754;8.864;2023-02-28T10:40:27;15.77;;;10.47;;
8327;SDS011;4201;48.754;8.864;2023-02-28T10:42:54;16.13;;;10.37;;
8327;SDS011;4201;48.754;8.864;2023-02-28T10:45:21;17.37;;;12.20;;
8327;SDS011;4201;48.754;8.864;2023-02-28T10:47:51;15.53;;;9.33;;
8327;SDS011;4201;48.754;8.864;2023-02-28T10:50:29;16.47;;;11.67;;
8327;SDS011;4201;48.754;8.864;2023-02-28T10:53:00;19.50;;;11.80;;
8327;SDS011;4201;48.754;8.864;2023-02-28T10:55:31;21.07;;;12.20;;
8327;SDS011;4201;48.754;8.864;2023-02-28T10:57:57;15.90;;;11.97;;
8327;SDS011;4201;48.754;8.864;2023-02-28T11:00:24;18.40;;;12.43;;
8327;SDS011;4201;48.754;8.864;2023-02-28T11:02:52;22.43;;;13.40;;
8327;SDS011;4201;48.754;8.864;2023-02-28T11:05:23;20.33;;;12.33;;
8327;SDS011;4201;48.754;8.864;2023-02-28T11:07:51;17.70;;;12.70;;
8327;SDS011;4201;48.754;8.864;2023-02-28T11:10:18;18.57;;;12.50;;
8327;SDS011;4201;48.754;8.864;2023-02-28T11:12:45;24.27;;;14.07;;
8327;SDS011;4201;48.754;8.864;2023-02-28T11:15:18;28.93;;;17.10;;
8327;SDS011;4201;48.754;8.864;2023-02-28T11:17:54;19.07;;;12.60;;
8327;SDS011;4201;48.754;8.864;2023-02-28T11:20:21;22.40;;;15.63;;
8327;SDS011;4201;48.754;8.864;2023-02-28T11:22:49;18.17;;;13.83;;
8327;SDS011;4201;48.754;8.864;2023-02-28T11:25:19;18.37;;;14.13;;
8327;SDS011;4201;48.754;8.864;2023-02-28T11:27:47;18.87;;;14.00;;
8327;SDS011;4201;48.754;8.864;2023-02-28T11:30:24;20.67;;;13.00;;
8327;SDS011;4201;48.754;8.864;2023-02-28T11:32:51;18.87;;;12.47;;
8327;SDS011;4201;48.754;8.864;2023-02-28T11:35:21;15.80;;;10.73;;
8327;SDS011;4201;48.754;8.864;2023-02-28T11:37:49;18.00;;;11.80;;
8327;SDS011;4201;48.754;8.864;2023-02-28T11:40:15;17.53;;;11.60;;
8327;SDS011;4201;48.754;8.864;2023-02-28T11:42:45;19.50;;;13.70;;
8327;SDS011;4201;48.754;8.864;2023-02-28T11:45:22;20.23;;;14.80;;
8327;SDS011;4201;48.754;8.864;2023-02-28T11:47:52;19.50;;;12.70;;
8327;SDS011;4201;48.754;8.864;2023-02-28T11:50:27;19.53;;;13.00;;
8327;SDS011;4201;48.754;8.864;2023-02-28T11:52:59;15.93;;;11.60;;
8327;SDS011;4201;48.754;8.864;2023-02-28T11:55:27;18.33;;;12.27;;
8327;SDS011;4201;48.754;8.864;2023-02-28T11:58:01;24.17;;;10.47;;
8327;SDS011;4201;48.754;8.864;2023-02-28T12:00:34;15.77;;;11.73;;
8327;SDS011;4201;48.754;8.864;2023-02-28T12:03:07;18.10;;;12.33;;
8327;SDS011;4201;48.754;8.864;2023-02-28T12:05:39;17.70;;;11.40;;
8327;SDS011;4201;48.754;8.864;2023-02-28T12:08:15;17.13;;;12.00;;
8327;SDS011;4201;48.754;8.864;2023-02-28T12:10:50;19.20;;;13.97;;
8327;SDS011;4201;48.754;8.864;2023-02-28T12:13:19;16.97;;;12.97;;
8327;SDS011;4201;48.754;8.864;2023-02-28T12:15:50;15.97;;;12.60;;
8327;SDS011;4201;48.754;8.864;2023-02-28T12:18:34;16.40;;;11.83;;
8327;SDS011;4201;48.754;8.864;2023-02-28T12:21:04;14.83;;;10.43;;
8327;SDS011;4201;48.754;8.864;2023-02-28T12:23:41;15.10;;;11.90;;
8327;SDS011;4201;48.754;8.864;2023-02-28T12:26:10;13.70;;;10.30;;
8327;SDS011;4201;48.754;8.864;2023-02-28T12:28:40;21.80;;;13.10;;
8327;SDS011;4201;48.754;8.864;2023-02-28T12:31:09;12.70;;;9.57;;
8327;SDS011;4201;48.754;8.864;2023-02-28T12:33:39;17.83;;;13.33;;
8327;SDS011;4201;48.754;8.864;2023-02-28T12:36:09;23.90;;;14.30;;
8327;SDS011;4201;48.754;8.864;2023-02-28T12:38:38;18.80;;;13.17;;
8327;SDS011;4201;48.754;8.864;2023-02-28T12:41:09;19.13;;;13.60;;
8327;SDS011;4201;48.754;8.864;2023-02-28T12:43:37;19.50;;;14.20;;
8327;SDS011;4201;48.754;8.864;2023-02-28T12:46:06;28.30;;;15.47;;
8327;SDS011;4201;48.754;8.864;2023-02-28T12:48:37;21.23;;;13.70;;
8327;SDS011;4201;48.754;8.864;2023-02-28T12:51:05;20.70;;;12.83;;
8327;SDS011;4201;48.754;8.864;2023-02-28T12:53:35;21.47;;;15.60;;
8327;SDS011;4201;48.754;8.864;2023-02-28T12:56:07;47.37;;;37.23;;
8327;SDS011;4201;48.754;8.864;2023-02-28T12:58:35;29.10;;;21.20;;
8327;SDS011;4201;48.754;8.864;2023-02-28T13:01:06;21.63;;;13.83;;
8327;SDS011;4201;48.754;8.864;2023-02-28T13:03:45;38.70;;;25.40;;
8327;SDS011;4201;48.754;8.864;2023-02-28T13:06:22;63.17;;;35.27;;
8327;SDS011;4201;48.754;8.864;2023-02-28T13:09:00;20.00;;;13.57;;
8327;SDS011;4201;48.754;8.864;2023-02-28T13:11:28;15.83;;;10.10;;
8327;SDS011;4201;48.754;8.864;2023-02-28T13:13:59;20.80;;;14.17;;
8327;SDS011;4201;48.754;8.864;2023-02-28T13:16:26;28.83;;;22.40;;
8327;SDS011;4201;48.754;8.864;2023-02-28T13:18:52;21.27;;;14.60;;
8327;SDS011;4201;48.754;8.864;2023-02-28T13:21:35;16.43;;;11.83;;
8327;SDS011;4201;48.754;8.864;2023-02-28T13:24:08;19.87;;;13.97;;
8327;SDS011;4201;48.754;8.864;2023-02-28T13:29:27;23.13;;;13.60;;
8327;SDS011;4201;48.754;8.864;2023-02-28T13:34:47;21.37;;;15.50;;
8327;SDS011;4201;48.754;8.864;2023-02-28T13:37:33;15.80;;;11.37;;
8327;SDS011;4201;48.754;8.864;2023-02-28T13:40:22;17.50;;;12.00;;
8327;SDS011;4201;48.754;8.864;2023-02-28T13:42:52;15.93;;;11.90;;
8327;SDS011;4201;48.754;8.864;2023-02-28T13:45:22;20.03;;;13.40;;
8327;SDS011;4201;48.754;8.864;2023-02-28T13:47:51;20.03;;;13.97;;
8327;SDS011;4201;48.754;8.864;2023-02-28T13:50:22;24.60;;;13.20;;
8327;SDS011;4201;48.754;8.864;2023-02-28T13:52:52;18.07;;;12.87;;
8327;SDS011;4201;48.754;8.864;2023-02-28T13:55:25;15.47;;;11.17;;
8327;SDS011;4201;48.754;8.864;2023-02-28T13:57:57;15.03;;;12.40;;
8327;SDS011;4201;48.754;8.864;2023-02-28T14:00:28;18.97;;;12.13;;
8327;SDS011;4201;48.754;8.864;2023-02-28T14:03:03;15.17;;;11.67;;
8327;SDS011;4201;48.754;8.864;2023-02-28T14:05:31;18.30;;;11.93;;
8327;SDS011;4201;48.754;8.864;2023-02-28T14:07:59;20.97;;;14.60;;
8327;SDS011;4201;48.754;8.864;2023-02-28T14:10:27;18.50;;;12.57;;
8327;SDS011;4201;48.754;8.864;2023-02-28T14:12:56;17.10;;;11.10;;
8327;SDS011;4201;48.754;8.864;2023-02-28T14:15:39;16.00;;;12.30;;
8327;SDS011;4201;48.754;8.864;2023-02-28T14:18:11;16.17;;;12.83;;
8327;SDS011;4201;48.754;8.864;2023-02-28T14:20:39;15.97;;;12.03;;
8327;SDS011;4201;48.754;8.864;2023-02-28T14:23:07;19.00;;;12.20;;
8327;SDS011;4201;48.754;8.864;2023-02-28T14:25:37;18.27;;;12.00;;
8327;SDS011;4201;48.754;8.864;2023-02-28T14:28:10;16.30;;;12.03;;
8327;SDS011;4201;48.754;8.864;2023-02-28T14:30:53;16.83;;;12.07;;
8327;SDS011;4201;48.754;8.864;2023-02-28T14:33:23;18.33;;;13.00;;
8327;SDS011;4201;48.754;8.864;2023-02-28T14:35:55;14.10;;;12.20;;
8327;SDS011;4201;48.754;8.864;2023-02-28T14:38:23;20.50;;;12.97;;
8327;SDS011;4201;48.754;8.864;2023-02-28T14:40:52;18.43;;;11.80;;
8327;SDS011;4201;48.754;8.864;2023-02-28T14:43:20;23.23;;;12.90;;
8327;SDS011;4201;48.754;8.864;2023-02-28T14:45:49;17.50;;;11.80;;
8327;SDS011;4201;48.754;8.864;2023-02-28T14:48:15;19.73;;;11.63;;
8327;SDS011;4201;48.754;8.864;2023-02-28T14:50:42;21.90;;;15.37;;
8327;SDS011;4201;48.754;8.864;2023-02-28T14:53:15;25.20;;;17.97;;
8327;SDS011;4201;48.754;8.864;2023-02-28T14:55:43;26.27;;;20.33;;
8327;SDS011;4201;48.754;8.864;2023-02-28T14:58:19;16.70;;;13.13;;
8327;SDS011;4201;48.754;8.864;2023-02-28T15:00:47;20.07;;;13.60;;
8327;SDS011;4201;48.754;8.864;2023-02-28T15:03:17;18.47;;;12.93;;
8327;SDS011;4201;48.754;8.864;2023-02-28T15:05:47;21.27;;;17.43;;
8327;SDS011;4201;48.754;8.864;2023-02-28T15:08:17;30.23;;;19.63;;
8327;SDS011;4201;48.754;8.864;2023-02-28T15:10:49;25.50;;;20.07;;
8327;SDS011;4201;48.754;8.864;2023-02-28T15:13:18;28.57;;;20.90;;
8327;SDS011;4201;48.754;8.864;2023-02-28T15:15:45;21.33;;;14.43;;
8327;SDS011;4201;48.754;8.864;2023-02-28T15:18:15;19.40;;;14.10;;